Αίθριος, θολός με cirrus
Με cirrus και πιθανές καταιγίδες
Με cirrus και πιθανές καταιγίδες
Με cirrus και πιθανές καταιγίδες
Με cirrus και πιθανές καταιγίδες
Με cirrus και πιθανές καταιγίδες
Με cirrus και πιθανές καταιγίδες
(°C)
13°
13°
13°
13°
12°
12°
12°
12°
11°
11°
11°
11°
11°
11°
(°C)
13°
12°
12°
11°
10°
10°
11°
Ν
ΝΝΔ
ΝΝΔ
ΝΝΔ
ΔΝΔ
ΔΝΔ
ΝΔ
(km/h)
7-12
7-9
7-11
7-9
7-12
6-12
6-13
(χιλιοστά)
0
0
0
0
0
0
0
(%)
10
5
17
11
11
10
10

Ανύψωση ήλιου

/ -14.8°
sun-icon
UV 3
05:01
20:57
Φθίνων αμφίκυρτος (φάση σελήνης) (204°)
23:46
05:39

METAR για 50.1°Β 14.27°Α (LKPR)

Χρόνος Συνθήκες Θερμοκρασία/
Σημείο δρόσου
Άνεμος Ορατότητα Καιρός Νέφη Πίεση Αλλαγή Ανεπεξέργαστο
VFR 14°C / 13°C 250º 3kt 9700m shallow Fog Clear 1018 No Significant change LKPR 252030Z 25003KT 9999 MIFG NSC 14/13 Q1018 NOSIG
VFR 14°C / 13°C 240º 4kt 9700m - Clouds and Visibility OK 1018 No Significant change LKPR 252000Z 24004KT CAVOK 14/13 Q1018 NOSIG
VFR 14°C / 13°C 250º 3kt 9700m - Few Clouds 1500ft 1018 No Significant change LKPR 251930Z 25003KT 9999 FEW015 14/13 Q1018 NOSIG
VFR 15°C / 13°C 2kt 9700m - Scattered Clouds 1500ft 1018 No Significant change LKPR 251900Z VRB02KT 9999 SCT015 15/13 Q1018 NOSIG
VFR 16°C / 13°C 70º 5kt 9700m - Clouds and Visibility OK 1017 No Significant change LKPR 251830Z 07005KT CAVOK 16/13 Q1017 NOSIG
VFR 16°C / 14°C 330º variable 290º to 350º 4kt 9700m - Clouds and Visibility OK 1017 No Significant change LKPR 251800Z 33004KT 290V350 CAVOK 16/14 Q1017 NOSIG
VFR 17°C / 13°C 330º variable 290º to 360º 5kt 9700m - Clouds and Visibility OK 1017 No Significant change LKPR 251730Z 33005KT 290V360 CAVOK 17/13 Q1017 NOSIG
VFR 18°C / 14°C 290º 8kt 9700m - Clouds and Visibility OK 1017 No Significant change LKPR 251700Z 29008KT CAVOK 18/14 Q1017 NOSIG
VFR 18°C / 14°C 280º variable 250º to 330º 6kt 9700m - Few Clouds 4800ft 1017 No Significant change LKPR 251630Z 28006KT 250V330 9999 FEW048 18/14 Q1017 NOSIG
VFR 18°C / 13°C 270º 7kt 9700m - Few Clouds 2000ft
Scattered Clouds 4500ft
1017 No Significant change LKPR 251600Z 27007KT 9999 FEW020CB SCT045 18/13 Q1017 NOSIG
VFR 17°C / 12°C 230º 7kt 9700m - Few Clouds 2000ft
Scattered Clouds 4000ft
1017 No Significant change LKPR 251530Z 23007KT 9999 FEW020CB SCT040 17/12 Q1017 NOSIG
VFR 18°C / 13°C 220º 8kt 9700m in the Vicinity Thunderstorm Few Clouds 2000ft 1017 Temporary: Visibility 7000. Thunderstorm Rain . Broken Clouds 2000ft. Cumulonimbus LKPR 251500Z 22008KT 9999 VCTS FEW020CB 18/13 Q1017 TEMPO 7000 TSRA BKN020CB
VFR 20°C / 13°C 280º 7kt 9700m in the Vicinity Thunderstorm Few Clouds 2000ft 1017 Temporary: Visibility 7000. Thunderstorm Rain . Broken Clouds 2000ft. Cumulonimbus LKPR 251430Z 28007KT 9999 VCTS FEW020CB 20/13 Q1017 TEMPO 7000 TSRA BKN020CB
VFR 18°C / 13°C 250º 10kt 9700m in the Vicinity Thunderstorm Few Clouds 2000ft
Scattered Clouds 4500ft
1017 Temporary: Visibility 7000. Thunderstorm Rain . Broken Clouds 2000ft. Cumulonimbus LKPR 251400Z 25010KT 9999 VCTS FEW020CB SCT045 18/13 Q1017 TEMPO 7000 TSRA BKN020CB
VFR 20°C / 13°C 360º variable 330º to 040º 5kt 9700m in the Vicinity Thunderstorm Few Clouds 2000ft
Scattered Clouds 4000ft
1016 Temporary: Visibility 7000. Thunderstorm Rain . Broken Clouds 2000ft. Cumulonimbus LKPR 251330Z 36005KT 330V040 9999 VCTS FEW020CB SCT040 20/13 Q1016 TEMPO 7000 TSRA BKN020CB
VFR 20°C / 13°C 20º 7kt 9700m Light Showers Rain in the Vicinity Thunderstorm 3.00mm precipitation Few Clouds 2000ft
Scattered Clouds 3500ft
1017 Temporary: Visibility 7000. Thunderstorm Rain . Broken Clouds 2000ft. Cumulonimbus LKPR 251300Z 02007KT 9999 -SHRA VCTS FEW020CB SCT035 20/13 Q1017 TEMPO 7000 TSRA BKN020CB
VFR 19°C / 14°C 10º variable 330º to 060º 6kt 9700m Light Showers Rain in the Vicinity Thunderstorm 3.00mm precipitation Few Clouds 2000ft
Scattered Clouds 3000ft
1017 Temporary: Visibility 7000. Thunderstorm Rain . Broken Clouds 1500ft. Cumulonimbus LKPR 251230Z 01006KT 330V060 9999 -SHRA VCTS FEW020CB SCT030 19/14 Q1017 TEMPO 7000 TSRA BKN015CB
VFR 19°C / 14°C 360º 7kt 9700m - Scattered Clouds 2000ft 1017 No Significant change LKPR 251200Z 36007KT 9999 SCT020 19/14 Q1017 NOSIG
VFR 19°C / 15°C 10º variable 320º to 050º 5kt 9700m - Scattered Clouds 1800ft 1017 No Significant change LKPR 251130Z 01005KT 320V050 9999 SCT018 19/15 Q1017 NOSIG
VFR 18°C / 15°C 360º variable 330º to 070º 7kt 9700m - Scattered Clouds 1100ft 1018 No Significant change LKPR 251100Z 36007KT 330V070 9999 SCT011 18/15 Q1018 NOSIG
MVFR 17°C / 15°C 350º variable 290º to 020º 6kt 8000m - Scattered Clouds 900ft 1018 No Significant change LKPR 251030Z 35006KT 290V020 8000 SCT009 17/15 Q1018 NOSIG
IFR 16°C / 14°C 340º variable 300º to 040º 5kt 8000m - Broken Clouds 600ft 1018 No Significant change LKPR 251000Z 34005KT 300V040 8000 BKN006 16/14 Q1018 NOSIG
IFR 15°C / 15°C 340º variable 290º to 040º 5kt 4000m Mist Few Clouds 200ft
Scattered Clouds 300ft
Broken Clouds 600ft
1019 Becoming: Visibility 5000. Mist . Broken Clouds 1000ft. LKPR 250930Z 34005KT 290V040 4000 BR FEW002 SCT003 BKN006 15/15 Q1019 BECMG 5000 BR BKN010
LIFR 14°C / 14°C 320º variable 270º to 350º 5kt 1600m Mist Scattered Clouds 200ft
Overcast 300ft
1019 Becoming: Visibility 5000. Mist . Broken Clouds 500ft. LKPR 250900Z 32005KT 270V350 1600 BR SCT002 OVC003 14/14 Q1019 BECMG 5000 BR BKN005

VFR

14°C / 13°C

[Περισσότερο]
Άνεμος 250º 3kt
Ορατότητα 9700m
Καιρός shallow Fog
Νέφη Clear
Πίεση 1018
Αλλαγή No Significant change
Ανεπεξέργαστο LKPR 252030Z 25003KT 9999 MIFG NSC 14/13 Q1018 NOSIG

VFR

14°C / 13°C

[Περισσότερο]
Άνεμος 240º 4kt
Ορατότητα 9700m
Καιρός -
Νέφη Clouds and Visibility OK
Πίεση 1018
Αλλαγή No Significant change
Ανεπεξέργαστο LKPR 252000Z 24004KT CAVOK 14/13 Q1018 NOSIG

VFR

14°C / 13°C

[Περισσότερο]
Άνεμος 250º 3kt
Ορατότητα 9700m
Καιρός -
Νέφη Few Clouds 1500ft
Πίεση 1018
Αλλαγή No Significant change
Ανεπεξέργαστο LKPR 251930Z 25003KT 9999 FEW015 14/13 Q1018 NOSIG

VFR

15°C / 13°C

[Περισσότερο]
Άνεμος 2kt
Ορατότητα 9700m
Καιρός -
Νέφη Scattered Clouds 1500ft
Πίεση 1018
Αλλαγή No Significant change
Ανεπεξέργαστο LKPR 251900Z VRB02KT 9999 SCT015 15/13 Q1018 NOSIG

VFR

16°C / 13°C

[Περισσότερο]
Άνεμος 70º 5kt
Ορατότητα 9700m
Καιρός -
Νέφη Clouds and Visibility OK
Πίεση 1017
Αλλαγή No Significant change
Ανεπεξέργαστο LKPR 251830Z 07005KT CAVOK 16/13 Q1017 NOSIG

VFR

16°C / 14°C

[Περισσότερο]
Άνεμος 330º variable 290º to 350º 4kt
Ορατότητα 9700m
Καιρός -
Νέφη Clouds and Visibility OK
Πίεση 1017
Αλλαγή No Significant change
Ανεπεξέργαστο LKPR 251800Z 33004KT 290V350 CAVOK 16/14 Q1017 NOSIG

VFR

17°C / 13°C

[Περισσότερο]
Άνεμος 330º variable 290º to 360º 5kt
Ορατότητα 9700m
Καιρός -
Νέφη Clouds and Visibility OK
Πίεση 1017
Αλλαγή No Significant change
Ανεπεξέργαστο LKPR 251730Z 33005KT 290V360 CAVOK 17/13 Q1017 NOSIG

VFR

18°C / 14°C

[Περισσότερο]
Άνεμος 290º 8kt
Ορατότητα 9700m
Καιρός -
Νέφη Clouds and Visibility OK
Πίεση 1017
Αλλαγή No Significant change
Ανεπεξέργαστο LKPR 251700Z 29008KT CAVOK 18/14 Q1017 NOSIG

VFR

18°C / 14°C

[Περισσότερο]
Άνεμος 280º variable 250º to 330º 6kt
Ορατότητα 9700m
Καιρός -
Νέφη Few Clouds 4800ft
Πίεση 1017
Αλλαγή No Significant change
Ανεπεξέργαστο LKPR 251630Z 28006KT 250V330 9999 FEW048 18/14 Q1017 NOSIG

VFR

18°C / 13°C

[Περισσότερο]
Άνεμος 270º 7kt
Ορατότητα 9700m
Καιρός -
Νέφη Few Clouds 2000ft
Scattered Clouds 4500ft
Πίεση 1017
Αλλαγή No Significant change
Ανεπεξέργαστο LKPR 251600Z 27007KT 9999 FEW020CB SCT045 18/13 Q1017 NOSIG

VFR

17°C / 12°C

[Περισσότερο]
Άνεμος 230º 7kt
Ορατότητα 9700m
Καιρός -
Νέφη Few Clouds 2000ft
Scattered Clouds 4000ft
Πίεση 1017
Αλλαγή No Significant change
Ανεπεξέργαστο LKPR 251530Z 23007KT 9999 FEW020CB SCT040 17/12 Q1017 NOSIG

VFR

18°C / 13°C

[Περισσότερο]
Άνεμος 220º 8kt
Ορατότητα 9700m
Καιρός in the Vicinity Thunderstorm
Νέφη Few Clouds 2000ft
Πίεση 1017
Αλλαγή Temporary: Visibility 7000. Thunderstorm Rain . Broken Clouds 2000ft. Cumulonimbus
Ανεπεξέργαστο LKPR 251500Z 22008KT 9999 VCTS FEW020CB 18/13 Q1017 TEMPO 7000 TSRA BKN020CB

VFR

20°C / 13°C

[Περισσότερο]
Άνεμος 280º 7kt
Ορατότητα 9700m
Καιρός in the Vicinity Thunderstorm
Νέφη Few Clouds 2000ft
Πίεση 1017
Αλλαγή Temporary: Visibility 7000. Thunderstorm Rain . Broken Clouds 2000ft. Cumulonimbus
Ανεπεξέργαστο LKPR 251430Z 28007KT 9999 VCTS FEW020CB 20/13 Q1017 TEMPO 7000 TSRA BKN020CB

VFR

18°C / 13°C

[Περισσότερο]
Άνεμος 250º 10kt
Ορατότητα 9700m
Καιρός in the Vicinity Thunderstorm
Νέφη Few Clouds 2000ft
Scattered Clouds 4500ft
Πίεση 1017
Αλλαγή Temporary: Visibility 7000. Thunderstorm Rain . Broken Clouds 2000ft. Cumulonimbus
Ανεπεξέργαστο LKPR 251400Z 25010KT 9999 VCTS FEW020CB SCT045 18/13 Q1017 TEMPO 7000 TSRA BKN020CB

VFR

20°C / 13°C

[Περισσότερο]
Άνεμος 360º variable 330º to 040º 5kt
Ορατότητα 9700m
Καιρός in the Vicinity Thunderstorm
Νέφη Few Clouds 2000ft
Scattered Clouds 4000ft
Πίεση 1016
Αλλαγή Temporary: Visibility 7000. Thunderstorm Rain . Broken Clouds 2000ft. Cumulonimbus
Ανεπεξέργαστο LKPR 251330Z 36005KT 330V040 9999 VCTS FEW020CB SCT040 20/13 Q1016 TEMPO 7000 TSRA BKN020CB

VFR

20°C / 13°C

[Περισσότερο]
Άνεμος 20º 7kt
Ορατότητα 9700m
Καιρός Light Showers Rain in the Vicinity Thunderstorm 3.00mm precipitation
Νέφη Few Clouds 2000ft
Scattered Clouds 3500ft
Πίεση 1017
Αλλαγή Temporary: Visibility 7000. Thunderstorm Rain . Broken Clouds 2000ft. Cumulonimbus
Ανεπεξέργαστο LKPR 251300Z 02007KT 9999 -SHRA VCTS FEW020CB SCT035 20/13 Q1017 TEMPO 7000 TSRA BKN020CB

VFR

19°C / 14°C

[Περισσότερο]
Άνεμος 10º variable 330º to 060º 6kt
Ορατότητα 9700m
Καιρός Light Showers Rain in the Vicinity Thunderstorm 3.00mm precipitation
Νέφη Few Clouds 2000ft
Scattered Clouds 3000ft
Πίεση 1017
Αλλαγή Temporary: Visibility 7000. Thunderstorm Rain . Broken Clouds 1500ft. Cumulonimbus
Ανεπεξέργαστο LKPR 251230Z 01006KT 330V060 9999 -SHRA VCTS FEW020CB SCT030 19/14 Q1017 TEMPO 7000 TSRA BKN015CB

VFR

19°C / 14°C

[Περισσότερο]
Άνεμος 360º 7kt
Ορατότητα 9700m
Καιρός -
Νέφη Scattered Clouds 2000ft
Πίεση 1017
Αλλαγή No Significant change
Ανεπεξέργαστο LKPR 251200Z 36007KT 9999 SCT020 19/14 Q1017 NOSIG

VFR

19°C / 15°C

[Περισσότερο]
Άνεμος 10º variable 320º to 050º 5kt
Ορατότητα 9700m
Καιρός -
Νέφη Scattered Clouds 1800ft
Πίεση 1017
Αλλαγή No Significant change
Ανεπεξέργαστο LKPR 251130Z 01005KT 320V050 9999 SCT018 19/15 Q1017 NOSIG

VFR

18°C / 15°C

[Περισσότερο]
Άνεμος 360º variable 330º to 070º 7kt
Ορατότητα 9700m
Καιρός -
Νέφη Scattered Clouds 1100ft
Πίεση 1018
Αλλαγή No Significant change
Ανεπεξέργαστο LKPR 251100Z 36007KT 330V070 9999 SCT011 18/15 Q1018 NOSIG

MVFR

17°C / 15°C

[Περισσότερο]
Άνεμος 350º variable 290º to 020º 6kt
Ορατότητα 8000m
Καιρός -
Νέφη Scattered Clouds 900ft
Πίεση 1018
Αλλαγή No Significant change
Ανεπεξέργαστο LKPR 251030Z 35006KT 290V020 8000 SCT009 17/15 Q1018 NOSIG

IFR

16°C / 14°C

[Περισσότερο]
Άνεμος 340º variable 300º to 040º 5kt
Ορατότητα 8000m
Καιρός -
Νέφη Broken Clouds 600ft
Πίεση 1018
Αλλαγή No Significant change
Ανεπεξέργαστο LKPR 251000Z 34005KT 300V040 8000 BKN006 16/14 Q1018 NOSIG

IFR

15°C / 15°C

[Περισσότερο]
Άνεμος 340º variable 290º to 040º 5kt
Ορατότητα 4000m
Καιρός Mist
Νέφη Few Clouds 200ft
Scattered Clouds 300ft
Broken Clouds 600ft
Πίεση 1019
Αλλαγή Becoming: Visibility 5000. Mist . Broken Clouds 1000ft.
Ανεπεξέργαστο LKPR 250930Z 34005KT 290V040 4000 BR FEW002 SCT003 BKN006 15/15 Q1019 BECMG 5000 BR BKN010

LIFR

14°C / 14°C

[Περισσότερο]
Άνεμος 320º variable 270º to 350º 5kt
Ορατότητα 1600m
Καιρός Mist
Νέφη Scattered Clouds 200ft
Overcast 300ft
Πίεση 1019
Αλλαγή Becoming: Visibility 5000. Mist . Broken Clouds 500ft.
Ανεπεξέργαστο LKPR 250900Z 32005KT 270V350 1600 BR SCT002 OVC003 14/14 Q1019 BECMG 5000 BR BKN005

TAF για 50.1°Β 14.27°Α (LKPR)

From till


From till Wind 210º 4kt. Visibility 9000m. Nil Significant Cloud.
Becoming from till
Becoming from till
With 40% probability, Temporarly from till Wind 2kt. Visibility 498.895m. Fog . Broken Clouds 100ft.
Becoming from till
Temporarly from till Wind 150º 12kt. Visibility 7000m. Showers Rain . Scattered Clouds 2500ft.
With 30% probability, Temporarly from till Visibility 5000m. Thunderstorm Rain . Scattered Clouds 2500ft.

Ανεπεξέργαστο: TAF LKPR 252000Z 2521/2703 21004KT 9000 NSC BECMG 2521/2523 4000 BR SCT015 BECMG 2600/2602 1500 BR SCT005 PROB40 TEMPO 2602/2606 VRB02KT 0500 FG BKN001 BECMG 2607/2609 17006KT 9999 SCT030 TEMPO 2611/2622 15012KT 7000 SHRA SCT025TCU PROB30 TEMPO 2614/2620 5000 TSRA SCT025CB

Ραντάρ και πρόγνωση υετού μικρής διάρκειας για 50.1°Β 14.27°Α

Ψιλοβρέχει
Ελαφριά
Μέτρια
Έντονη
Πολύ έντονες
Χαλάζι

Ο δείκτης θέσης τοποθετείται στο 50.1°Β 14.27°Α. Αυτό το κινούμενο σχέδιο δείχνει το ραντάρ βροχόπτωσης για το επιλεγμένο χρονικό εύρος, καθώς και μια πρόγνωση 2h. Οι πορτοκαλί σταυροί υποδεικνύουν κεραυνούς. Δεδομένα που παρέχονται από nowcast.de (διαθέσιμα στις ΗΠΑ, την Ευρώπη, την Αυστραλία). Το ψιλόβροχο ή το ελαφρύ χιόνι μπορεί να είναι αόρατο για το ραντάρ. Η ένταση της βροχόπτωσης είναι χρωματικά κωδικοποιημένη και κυμαίνεται από τυρκουάζ έως κόκκινο.

Τρέχουσες εικόνες δορυφόρου και βροχής για 50.1°Β 14.27°Α

Η ένδειξη τοποθεσίας τοποθετείται στο 50.1°Β 14.27°Α. [Περισσότερο]

Οι δορυφορικές εικόνες σε πραγματικό χρόνο συνδυάζουν ορατό φως κατά τη διάρκεια της ημέρας με υπέρυθρη ακτινοβολία κατά τη διάρκεια της νύχτας. Κατά τη διάρκεια της νύχτας, η εικόνα δεν είναι σκοτεινή μιας και η υπέρυθρη ακτινοβολία μπορεί να εντοπίσει τις διαφορές στη θερμοκρασία. Δυστυχώς, είναι δύσκολο να ξεχωρίσουν οι χαμηλές νεφώσεις και η ομίχλη από τις θερμοκρασίες εδάφους και έτσι μπορεί να είναι σχετικά αόρατα κατά τη διάρκεια της νύχτας. Οι εικόνες από τον δορυφόρο Meteosat για την Ευρώπη ενημερώνονται σε πραγματικό χρόνο κάθε 5 λεπτά. Οι εικόνες από τους δορυφόρους GOES-16/GOES-17 (Βόρεια & Λατινική Αμερική) και Himawari (Ασία) ενημερώνονται κάθε 10 λεπτά.

Η βροχόπτωση εκτιμάται από ραντάρ και δορυφόρους. Οι εκτιμήσεις βροχόπτωσης από τους δορυφόρους είναι λιγότερο ακριβείς τη νύχτα απ' ό,τι κατά τη διάρκεια της ημέρας.

© 2024 meteoblue, NOAA Satellites GOES-16 and EUMETSAT. Δεδομένα αστραπών παρεχόμενα από nowcast.

Επιστροφή στην κορυφή
×
Γεια σου,
φαίνεται ότι χρησιμοποιείς ένα πρόγραμμα αποκλεισμού διαφημίσεων.

Η διαφήμιση είναι απαραίτητη για τη διατήρηση του δωρεάν ιστότοπού μας με μοναδική λεπτομέρεια και ακρίβεια.

Παρακαλούμε καταχωρήστε το www.meteoblue.com στη λευκή λίστα του ad blocker σας ή σκεφτείτε να αγοράσετε ένα από τα προϊόντα μας:

Έχετε ήδη συνδρομή;
Τότε παρακαλούμε σύνδεση.